createdAt,value
2022-07-29T00:02:43.260Z,6.10
2022-07-29T00:07:47.177Z,6.32
2022-07-29T00:12:51.028Z,6.07
2022-07-29T00:17:57.427Z,6.70
2022-07-29T00:23:01.271Z,6.80
2022-07-29T00:28:05.256Z,6.80
2022-07-29T00:33:10.537Z,7.05
2022-07-29T00:38:15.864Z,7.40
2022-07-29T00:43:20.013Z,7.60
2022-07-29T00:48:25.247Z,7.20
2022-07-29T00:53:29.632Z,7.00
2022-07-29T00:58:33.992Z,7.60
2022-07-29T01:03:39.247Z,7.85
2022-07-29T01:08:43.171Z,7.97
2022-07-29T01:13:48.486Z,7.80
2022-07-29T01:18:58.810Z,8.07
2022-07-29T01:24:14.424Z,8.93
2022-07-29T01:29:24.810Z,8.00
2022-07-29T01:34:42.003Z,9.02
2022-07-29T01:39:46.584Z,9.52
2022-07-29T01:44:57.437Z,11.35
2022-07-29T01:50:02.364Z,10.13
2022-07-29T01:55:10.606Z,8.82
2022-07-29T02:00:17.557Z,9.27
2022-07-29T02:05:24.275Z,8.45
2022-07-29T02:10:30.920Z,8.63
2022-07-29T02:15:36.888Z,8.88
2022-07-29T02:25:45.419Z,8.80
2022-07-29T02:30:52.643Z,8.98
2022-07-29T02:35:57.431Z,8.65
2022-07-29T02:41:02.767Z,9.00
2022-07-29T02:46:12.671Z,9.05
2022-07-29T02:51:43.961Z,9.50
2022-07-29T02:56:49.532Z,8.63
2022-07-29T03:01:55.310Z,8.27
2022-07-29T03:07:01.613Z,7.97
2022-07-29T03:12:06.677Z,8.32
2022-07-29T03:17:12.156Z,7.87
2022-07-29T03:22:16.274Z,6.88
2022-07-29T03:27:23.273Z,7.10
2022-07-29T03:32:28.527Z,7.78
2022-07-29T03:37:32.625Z,7.77
2022-07-29T03:42:39.027Z,6.95
2022-07-29T03:47:51.066Z,10.07
2022-07-29T03:52:55.605Z,7.75
2022-07-29T03:58:00.059Z,8.68
2022-07-29T04:03:06.346Z,8.32
2022-07-29T04:08:15.559Z,7.22
2022-07-29T04:13:19.393Z,8.32
2022-07-29T04:18:25.000Z,8.20
2022-07-29T04:23:28.918Z,8.05
2022-07-29T04:28:32.795Z,7.95
2022-07-29T04:33:38.123Z,8.18
2022-07-29T04:38:42.026Z,8.00
2022-07-29T04:43:45.914Z,7.97
2022-07-29T04:48:51.312Z,8.45
2022-07-29T04:53:55.247Z,7.90
2022-07-29T04:58:59.094Z,7.95
2022-07-29T05:04:04.453Z,7.22
2022-07-29T05:09:08.329Z,8.30
2022-07-29T05:14:17.584Z,7.00
2022-07-29T05:19:23.094Z,6.93
2022-07-29T05:24:26.907Z,7.38
2022-07-29T05:29:42.794Z,6.70
2022-07-29T05:34:51.804Z,6.95
2022-07-29T05:39:56.714Z,7.07
2022-07-29T05:45:01.284Z,6.72
2022-07-29T05:50:07.750Z,6.80
2022-07-29T05:55:12.294Z,6.75
2022-07-29T06:00:16.724Z,5.68
2022-07-29T06:05:21.979Z,5.70
2022-07-29T06:10:27.081Z,5.90
2022-07-29T06:15:31.223Z,6.32
2022-07-29T06:20:36.464Z,5.85
2022-07-29T06:25:42.337Z,5.47
2022-07-29T06:30:46.206Z,6.22
2022-07-29T06:35:55.008Z,5.88
2022-07-29T06:41:06.239Z,5.70
2022-07-29T06:46:11.683Z,5.40
2022-07-29T06:51:22.444Z,5.07
2022-07-29T06:56:27.408Z,5.00
2022-07-29T07:01:31.353Z,4.63
2022-07-29T07:06:36.686Z,4.70
2022-07-29T07:16:44.234Z,5.57
2022-07-29T07:21:49.552Z,5.07
2022-07-29T07:26:53.510Z,4.75
2022-07-29T07:32:00.986Z,5.22
2022-07-29T07:37:06.653Z,4.68
2022-07-29T07:42:12.448Z,4.45
2022-07-29T07:47:16.719Z,5.60
2022-07-29T07:52:24.320Z,4.03
2022-07-29T07:57:28.298Z,3.95
2022-07-29T08:02:32.179Z,4.03
2022-07-29T08:07:37.500Z,3.72
2022-07-29T08:12:41.383Z,3.88
2022-07-29T08:17:45.268Z,3.60
2022-07-29T08:22:50.531Z,4.43
2022-07-29T08:27:54.356Z,4.00
2022-07-29T08:32:58.310Z,3.83
2022-07-29T08:38:04.528Z,4.13
2022-07-29T08:43:09.389Z,3.47
2022-07-29T08:48:14.302Z,3.97
2022-07-29T09:03:33.183Z,3.70
2022-07-29T09:08:38.503Z,4.10
2022-07-29T09:13:42.372Z,3.63
2022-07-29T09:18:48.181Z,3.57
2022-07-29T09:24:08.844Z,4.05
2022-07-29T09:29:16.672Z,4.20
2022-07-29T09:34:24.985Z,3.55
2022-07-29T09:39:32.111Z,3.70
2022-07-29T09:44:46.780Z,3.47
2022-07-29T09:49:55.515Z,3.90
2022-07-29T09:55:08.440Z,4.05
2022-07-29T10:00:14.518Z,4.07
2022-07-29T10:05:20.823Z,3.90
2022-07-29T10:10:27.796Z,3.83
2022-07-29T10:15:33.864Z,3.40
2022-07-29T10:20:37.960Z,3.60
2022-07-29T10:25:46.397Z,3.45
2022-07-29T10:30:52.777Z,3.35
2022-07-29T10:36:10.667Z,3.38
2022-07-29T10:41:29.046Z,3.17
2022-07-29T10:46:41.270Z,3.60
2022-07-29T10:51:55.951Z,3.42
2022-07-29T10:57:53.251Z,3.10
2022-07-29T11:02:54.439Z,3.53
2022-07-29T11:08:26.338Z,3.20
2022-07-29T11:13:55.832Z,2.80
2022-07-29T11:19:26.694Z,2.70
2022-07-29T11:24:37.340Z,2.55
2022-07-29T11:29:56.956Z,2.80
2022-07-29T11:35:19.042Z,2.83
2022-07-29T11:40:23.333Z,3.35
2022-07-29T11:50:58.299Z,3.03
2022-07-29T11:56:03.630Z,3.13
2022-07-29T12:01:09.052Z,2.83
2022-07-29T12:06:18.265Z,2.58
2022-07-29T12:11:23.578Z,3.10
2022-07-29T12:16:37.068Z,2.50
2022-07-29T12:21:56.990Z,3.33
2022-07-29T12:27:03.467Z,2.40
2022-07-29T12:32:14.714Z,3.10
2022-07-29T12:37:35.769Z,2.70
2022-07-29T12:43:08.221Z,3.00
2022-07-29T12:48:13.763Z,3.28
2022-07-29T12:53:17.912Z,2.88
2022-07-29T12:58:33.523Z,3.15
2022-07-29T13:03:56.688Z,3.20
2022-07-29T13:09:02.579Z,2.65
2022-07-29T13:14:07.321Z,2.95
2022-07-29T13:19:14.060Z,2.60
2022-07-29T13:24:19.869Z,2.70
2022-07-29T13:29:25.773Z,2.90
2022-07-29T13:34:33.928Z,2.60
2022-07-29T13:39:38.401Z,2.83
2022-07-29T13:44:42.845Z,3.13
2022-07-29T13:49:48.119Z,3.17
2022-07-29T13:54:52.020Z,3.70
2022-07-29T13:59:55.926Z,3.30
2022-07-29T14:05:04.949Z,3.78
2022-07-29T14:10:12.024Z,3.60
2022-07-29T14:15:15.859Z,2.92
2022-07-29T14:20:21.352Z,3.58
2022-07-29T14:25:25.494Z,3.47
2022-07-29T14:35:34.406Z,3.10
2022-07-29T14:40:38.295Z,3.03
2022-07-29T14:45:42.295Z,4.03
2022-07-29T14:50:47.566Z,3.70
2022-07-29T14:55:51.700Z,3.28
2022-07-29T15:00:55.975Z,3.45
2022-07-29T15:06:01.270Z,3.90
2022-07-29T15:11:05.170Z,4.70
2022-07-29T15:16:09.094Z,4.32
2022-07-29T15:21:14.743Z,3.78
2022-07-29T15:26:18.950Z,3.70
2022-07-29T15:31:22.858Z,3.72
2022-07-29T15:36:50.932Z,3.20
2022-07-29T15:41:52.674Z,3.67
2022-07-29T15:52:11.972Z,3.88
2022-07-29T15:57:16.407Z,3.70
2022-07-29T16:02:20.381Z,4.07
2022-07-29T16:07:31.370Z,4.90
2022-07-29T16:12:36.648Z,4.03
2022-07-29T16:17:40.756Z,4.67
2022-07-29T16:22:46.131Z,3.65
2022-07-29T16:27:50.018Z,4.18
2022-07-29T16:32:53.931Z,5.10
2022-07-29T16:37:59.487Z,9.67
2022-07-29T16:43:03.355Z,7.95
2022-07-29T16:48:07.605Z,5.10
2022-07-29T16:53:12.915Z,7.53
2022-07-29T16:58:16.788Z,5.43
2022-07-29T17:03:20.712Z,10.10
2022-07-29T17:08:26.049Z,5.43
2022-07-29T17:13:29.954Z,6.35
2022-07-29T17:18:33.786Z,11.20
2022-07-29T17:23:39.031Z,6.75
2022-07-29T17:28:43.000Z,8.68
2022-07-29T17:33:46.955Z,7.32
2022-07-29T17:38:52.935Z,6.85
2022-07-29T17:43:57.490Z,5.85
2022-07-29T17:49:01.454Z,7.63
2022-07-29T17:54:07.148Z,6.88
2022-07-29T17:59:11.109Z,5.68
2022-07-29T18:04:20.173Z,6.60
2022-07-29T18:09:25.591Z,6.32
2022-07-29T18:14:29.496Z,6.40
2022-07-29T18:19:33.428Z,6.18
2022-07-29T18:24:38.692Z,5.90
2022-07-29T18:29:42.665Z,6.43
2022-07-29T18:34:46.573Z,6.25
2022-07-29T18:39:51.883Z,6.60
2022-07-29T18:44:55.910Z,7.35
2022-07-29T18:49:59.785Z,6.28
2022-07-29T18:55:05.616Z,6.03
2022-07-29T19:00:10.858Z,5.65
2022-07-29T19:05:16.907Z,6.50
2022-07-29T19:10:22.240Z,5.68
2022-07-29T19:20:30.258Z,6.18
2022-07-29T19:25:35.932Z,6.97
2022-07-29T19:30:40.414Z,6.00
2022-07-29T19:35:44.422Z,6.47
2022-07-29T19:40:49.889Z,5.93
2022-07-29T19:50:57.304Z,6.38
2022-07-29T19:56:02.573Z,6.60
2022-07-29T20:01:10.802Z,7.03
2022-07-29T20:06:15.102Z,6.63
2022-07-29T20:11:20.399Z,6.88
2022-07-29T20:16:25.557Z,6.95
2022-07-29T20:21:29.639Z,6.90
2022-07-29T20:26:34.908Z,6.40
2022-07-29T20:31:38.852Z,6.60
2022-07-29T20:36:42.736Z,7.28
2022-07-29T20:41:48.014Z,6.45
2022-07-29T20:46:51.903Z,6.90
2022-07-29T20:51:55.775Z,6.93
2022-07-29T20:57:01.539Z,6.93
2022-07-29T21:02:05.698Z,6.68
2022-07-29T21:07:09.692Z,6.78
2022-07-29T21:12:14.935Z,7.25
2022-07-29T21:17:21.277Z,6.53
2022-07-29T21:22:26.654Z,7.10
2022-07-29T21:27:49.495Z,6.65
2022-07-29T21:32:53.404Z,6.18
2022-07-29T21:37:57.259Z,6.88
2022-07-29T21:43:02.631Z,6.47
2022-07-29T21:48:06.988Z,7.43
2022-07-29T21:53:12.739Z,6.68
2022-07-29T21:58:21.347Z,6.65
2022-07-29T22:03:25.171Z,6.60
2022-07-29T22:08:29.026Z,6.55
2022-07-29T22:13:34.342Z,7.00
2022-07-29T22:18:40.926Z,6.97
2022-07-29T22:23:44.802Z,6.65
2022-07-29T22:28:50.095Z,5.93
2022-07-29T22:33:54.092Z,6.38
2022-07-29T22:38:58.003Z,6.53
2022-07-29T22:44:03.375Z,6.20
2022-07-29T22:49:07.363Z,6.20
2022-07-29T22:54:11.295Z,6.47
2022-07-29T22:59:16.564Z,7.30
2022-07-29T23:04:23.695Z,7.63
2022-07-29T23:09:27.580Z,6.82
2022-07-29T23:14:32.816Z,6.82
2022-07-29T23:19:36.702Z,6.83
2022-07-29T23:24:40.554Z,7.50
2022-07-29T23:29:46.227Z,7.40
2022-07-29T23:34:50.090Z,7.30
2022-07-29T23:39:54.019Z,7.10
2022-07-29T23:44:59.299Z,7.25
2022-07-29T23:50:03.189Z,6.67
2022-07-29T23:55:37.431Z,7.47
